createdAt,value
2023-01-18T08:12:56.851Z,0.50
2023-01-18T13:20:47.495Z,0.50
2023-01-18T13:21:47.469Z,0.57
2023-01-18T13:22:47.445Z,0.45
2023-01-18T13:23:47.402Z,0.50
2023-01-18T13:24:47.389Z,0.52
2023-01-18T13:25:47.334Z,0.50
2023-01-18T13:26:47.323Z,0.50
2023-01-18T13:27:47.269Z,0.51
2023-01-18T13:28:47.242Z,0.50
2023-01-18T13:29:47.201Z,0.51
2023-01-18T13:30:47.167Z,0.55
2023-01-18T13:31:47.122Z,0.55
2023-01-18T13:32:47.110Z,0.56
2023-01-18T13:33:47.048Z,0.53
2023-01-18T13:34:48.783Z,0.51
2023-01-18T13:35:46.973Z,0.51
2023-01-18T13:36:46.974Z,0.49
2023-01-18T13:37:46.908Z,0.50
2023-01-18T13:38:46.889Z,0.49
2023-01-18T13:39:46.882Z,0.49
2023-01-18T13:40:46.814Z,0.50
2023-01-18T13:41:46.785Z,0.51
2023-01-18T13:42:46.791Z,0.51
2023-01-18T13:43:46.715Z,0.51
2023-01-18T13:44:46.681Z,0.52
2023-01-18T13:45:46.774Z,0.50
2023-01-18T13:46:46.667Z,0.56
2023-01-18T13:47:46.619Z,0.55
2023-01-18T13:48:46.611Z,0.55
2023-01-18T13:49:46.543Z,0.55
2023-01-18T13:50:46.513Z,0.56
2023-01-18T13:51:46.497Z,0.54
2023-01-18T13:52:46.454Z,0.57
2023-01-18T13:53:46.426Z,0.57
2023-01-18T13:54:46.888Z,0.58
2023-01-18T13:55:46.364Z,0.56
2023-01-18T13:56:46.318Z,0.59
2023-01-18T13:57:46.299Z,0.58
2023-01-18T13:58:46.316Z,0.59
2023-01-18T13:59:46.227Z,0.59
2023-01-18T14:00:46.249Z,0.59
2023-01-18T14:01:46.260Z,0.60
2023-01-18T14:02:46.199Z,0.60
2023-01-18T14:03:46.349Z,0.61
2023-01-18T14:04:46.200Z,0.61
2023-01-18T14:05:46.213Z,0.62
2023-01-18T14:06:46.214Z,0.62
2023-01-18T14:07:46.220Z,0.62
2023-01-18T14:08:46.233Z,0.62
2023-01-18T14:09:46.256Z,0.62
2023-01-18T14:10:46.250Z,0.64
2023-01-18T14:11:46.246Z,0.65
2023-01-18T14:12:46.264Z,0.65
2023-01-18T14:13:46.300Z,0.65
2023-01-18T14:14:46.275Z,0.65
2023-01-18T14:15:46.317Z,0.66
2023-01-18T14:16:46.360Z,0.67
2023-01-18T14:17:57.941Z,0.67
2023-01-18T14:24:46.107Z,0.71
2023-01-18T14:25:46.090Z,0.72
2023-01-18T14:26:46.047Z,0.72
2023-01-18T14:27:46.023Z,0.72
2023-01-18T14:28:45.989Z,0.73
2023-01-18T14:29:45.952Z,0.74
2023-01-18T14:30:45.949Z,0.74
2023-01-18T14:31:45.956Z,0.74
2023-01-18T14:32:46.001Z,0.76
2023-01-18T14:33:46.014Z,0.76
2023-01-18T14:34:46.026Z,0.76
2023-01-18T14:35:46.069Z,0.77
2023-01-18T14:36:46.088Z,0.77
2023-01-18T14:37:46.127Z,0.77
2023-01-18T14:38:46.146Z,0.78
2023-01-18T14:39:46.158Z,0.77
2023-01-18T14:40:46.199Z,0.81
2023-01-18T14:41:46.221Z,0.80
2023-01-18T14:42:46.244Z,0.82
2023-01-18T14:43:46.282Z,0.81
2023-01-18T14:44:57.745Z,0.81
2023-01-18T14:45:47.299Z,0.82
2023-01-18T14:46:47.935Z,0.81
2023-01-18T14:47:46.241Z,0.82
2023-01-18T14:48:46.221Z,0.82
2023-01-18T14:49:46.208Z,0.85
2023-01-18T14:50:46.155Z,0.85
2023-01-18T14:51:46.136Z,0.84
2023-01-18T14:52:46.119Z,0.84
2023-01-18T14:53:46.087Z,0.87
2023-01-18T14:54:46.060Z,0.86
2023-01-18T14:55:46.050Z,0.88
2023-01-18T14:56:46.026Z,0.88
2023-01-18T14:57:46.256Z,0.87
2023-01-18T14:58:45.968Z,0.89
2023-01-18T14:59:45.951Z,0.88
2023-01-18T15:00:46.063Z,0.89
2023-01-18T15:01:45.970Z,0.90
2023-01-18T15:02:45.924Z,0.90
2023-01-18T15:03:45.846Z,0.90
2023-01-18T15:04:45.845Z,0.92
2023-01-18T15:05:45.804Z,0.92
2023-01-18T15:06:45.807Z,0.93
2023-01-18T15:07:45.781Z,0.93
2023-01-18T15:08:45.746Z,0.95
2023-01-18T15:09:45.741Z,0.96
2023-01-18T15:10:45.716Z,0.95
2023-01-18T15:11:45.698Z,0.96
2023-01-18T15:12:45.671Z,0.96
2023-01-18T15:13:45.671Z,0.94
2023-01-18T15:14:45.647Z,0.97
2023-01-18T15:15:45.624Z,0.96
2023-01-18T15:16:45.588Z,0.98
2023-01-18T15:17:45.565Z,0.99
2023-01-18T15:18:45.542Z,1.02
2023-01-18T15:19:45.523Z,0.98
2023-01-18T15:31:45.550Z,0.98
2023-01-18T15:32:45.552Z,0.98
2023-01-18T15:33:45.583Z,1.02
2023-01-18T15:34:45.604Z,1.00
2023-01-18T15:35:47.971Z,1.03
2023-01-18T15:36:45.604Z,1.06
2023-01-18T15:37:45.593Z,1.05
2023-01-18T15:38:45.567Z,1.05
2023-01-18T15:39:45.541Z,1.04
2023-01-18T15:40:45.533Z,1.05
2023-01-18T15:42:45.502Z,1.08
2023-01-18T15:43:45.470Z,1.08
2023-01-18T15:44:45.429Z,1.07
2023-01-18T15:45:45.451Z,1.06
2023-01-18T15:46:45.381Z,1.07
2023-01-18T15:47:45.353Z,1.09
2023-01-18T15:48:45.748Z,1.08
2023-01-18T15:49:45.304Z,1.09
2023-01-18T15:50:45.287Z,1.10
2023-01-18T15:51:45.267Z,1.10
2023-01-18T15:52:45.533Z,1.12
2023-01-18T15:53:45.204Z,1.11
2023-01-18T16:22:45.495Z,1.62
2023-01-18T16:23:45.532Z,1.64
2023-01-18T16:24:45.572Z,1.68
2023-01-18T16:25:45.599Z,1.62
2023-01-18T16:26:45.637Z,1.75
2023-01-18T16:27:45.669Z,1.85
2023-01-18T16:28:45.715Z,2.25
2023-01-18T16:29:45.759Z,2.05
2023-01-18T16:30:45.820Z,1.92
2023-01-18T16:31:45.859Z,1.79
2023-01-18T16:32:45.907Z,1.71
2023-01-18T16:33:45.953Z,1.69
2023-01-18T16:34:46.008Z,1.65
2023-01-18T16:52:46.876Z,1.62
2023-01-18T16:53:46.864Z,1.62
2023-01-18T16:54:46.966Z,1.62
2023-01-18T16:55:46.939Z,1.62
2023-01-18T16:56:46.999Z,1.61
2023-01-18T16:57:47.043Z,1.60
2023-01-18T16:58:47.082Z,1.59
2023-01-18T16:59:47.149Z,1.60
2023-01-18T17:00:47.196Z,1.46
2023-01-18T17:01:47.346Z,1.57
2023-01-18T17:02:47.320Z,1.49
2023-01-18T17:03:47.295Z,1.53
2023-01-18T17:04:47.344Z,1.53
2023-01-18T17:06:47.408Z,1.47
2023-01-18T17:07:47.469Z,1.45
2023-01-18T17:08:47.512Z,1.51
2023-01-18T17:09:49.009Z,1.43
2023-01-18T17:10:47.594Z,1.46
2023-01-18T17:11:47.637Z,1.45
2023-01-18T17:12:47.736Z,1.46
2023-01-18T17:13:47.819Z,1.43
2023-01-18T17:14:47.776Z,1.42
2023-01-18T17:15:47.802Z,1.42
2023-01-18T17:16:47.860Z,1.47
2023-01-18T17:17:47.908Z,1.47
2023-01-18T17:18:47.961Z,1.43
2023-01-18T17:19:47.959Z,1.44
2023-01-18T17:20:47.981Z,1.42
2023-01-18T17:21:48.023Z,1.42
2023-01-18T17:22:48.064Z,1.44
2023-01-18T17:23:48.088Z,1.43
2023-01-18T17:24:48.117Z,1.48
2023-01-18T17:25:48.133Z,1.45
2023-01-18T17:26:48.163Z,1.48
2023-01-18T17:27:48.179Z,1.43
2023-01-18T20:49:55.513Z,1.53
2023-01-18T20:50:55.546Z,1.57
2023-01-18T20:51:55.586Z,1.55
2023-01-18T20:52:55.643Z,1.53
2023-01-18T20:53:55.732Z,1.52
2023-01-18T20:54:55.746Z,1.51
2023-01-18T20:55:55.804Z,1.50
2023-01-18T20:56:55.851Z,1.54
2023-01-18T20:57:55.896Z,1.52
2023-01-18T20:58:55.956Z,1.55
2023-01-18T20:59:56.002Z,1.50
2023-01-18T21:00:56.233Z,1.54
2023-01-18T21:01:56.257Z,1.52
2023-01-18T21:02:56.215Z,1.52
2023-01-18T21:03:56.188Z,1.54
2023-01-18T21:04:56.304Z,1.50
2023-01-18T21:05:56.278Z,1.52
2023-01-18T21:06:56.308Z,1.49
2023-01-18T21:07:56.370Z,1.50
2023-01-18T21:08:56.489Z,1.50
2023-01-18T21:09:56.440Z,1.51
2023-01-18T21:10:56.498Z,1.52
2023-01-18T21:11:56.534Z,1.50
2023-01-18T21:12:56.592Z,1.49
2023-01-18T21:13:56.640Z,1.50
2023-01-18T21:14:56.669Z,1.51
2023-01-18T21:15:56.722Z,1.53
2023-01-18T21:16:56.821Z,1.51
2023-01-18T21:17:57.685Z,1.51
2023-01-18T21:18:56.865Z,1.51
2023-01-18T21:19:56.909Z,1.49
2023-01-18T21:20:56.968Z,1.52
2023-01-18T21:21:57.030Z,1.51
2023-01-18T21:22:57.053Z,1.52
2023-01-18T21:23:57.120Z,1.53
2023-01-18T21:24:57.311Z,1.53
2023-01-18T21:25:57.205Z,1.52
2023-01-18T21:26:57.251Z,1.49
2023-01-18T21:27:57.834Z,1.53
2023-01-18T21:28:57.353Z,1.57
2023-01-18T21:29:57.985Z,1.52
2023-01-18T21:30:57.420Z,1.55
2023-01-18T21:31:57.538Z,1.51
2023-01-18T21:32:57.537Z,1.50
2023-01-18T21:33:57.586Z,1.49
2023-01-18T21:34:57.631Z,1.55
2023-01-18T21:35:57.665Z,1.53
2023-01-18T21:36:57.723Z,1.50
2023-01-18T21:37:58.130Z,1.50
2023-01-18T21:38:57.825Z,1.50
2023-01-18T22:15:59.615Z,1.69
2023-01-18T23:15:01.863Z,1.66
2023-01-18T23:27:02.290Z,1.65
2023-01-18T23:35:02.567Z,1.64
2023-01-18T23:50:02.859Z,1.66
2023-01-18T23:55:02.872Z,1.62
2023-01-18T23:56:02.875Z,1.61
2023-01-18T23:57:02.899Z,1.62
2023-01-18T23:58:03.249Z,1.66
2023-01-18T23:59:02.939Z,1.62
